createdAt,value
2014-08-02T06:25:35.341Z,25.6
2014-08-02T06:30:03.175Z,25.5
2014-08-02T06:34:31.088Z,25.5
2014-08-02T06:38:58.222Z,25.6
2014-08-02T06:43:25.970Z,25.5
2014-08-02T06:47:54.344Z,25.6
2014-08-02T06:52:22.711Z,25.6
2014-08-02T06:56:51.094Z,25.5
2014-08-02T07:01:19.462Z,25.6
2014-08-02T07:05:46.581Z,25.6
2014-08-02T07:10:13.698Z,25.6
2014-08-02T07:14:41.440Z,25.6
2014-08-02T07:19:09.184Z,25.7
2014-08-02T07:23:37.692Z,25.7
2014-08-02T07:28:05.436Z,25.6
2014-08-02T07:32:33.804Z,25.6
2014-08-02T07:37:00.936Z,25.7
2014-08-02T07:41:28.056Z,25.7
2014-08-02T07:45:55.797Z,25.7
2014-08-02T07:50:23.540Z,25.6
2014-08-02T07:54:51.909Z,25.6
2014-08-02T07:59:19.651Z,25.6
2014-08-02T08:03:47.393Z,25.5
2014-08-02T08:08:15.903Z,25.6
2014-08-02T08:12:43.662Z,25.6
2014-08-02T08:17:11.420Z,25.7
2014-08-02T08:21:37.913Z,25.6
2014-08-02T08:26:06.282Z,25.7
2014-08-02T08:30:34.024Z,25.6
2014-08-02T08:35:01.783Z,25.7
2014-08-02T08:39:28.899Z,25.6
2014-08-02T08:43:56.643Z,25.6
2014-08-02T08:48:24.387Z,25.6
2014-08-02T08:52:52.130Z,25.6
2014-08-02T08:57:20.513Z,25.7
2014-08-02T09:01:48.896Z,25.6
2014-08-02T09:06:16.014Z,25.7
2014-08-02T09:10:44.383Z,25.7
2014-08-02T09:15:12.766Z,25.7
2014-08-02T09:19:40.510Z,25.7
2014-08-02T09:24:08.251Z,25.7
2014-08-02T09:28:35.386Z,25.7
2014-08-02T09:33:03.754Z,25.7
2014-08-02T09:37:32.137Z,25.7
2014-08-02T09:41:59.255Z,25.7
2014-08-02T09:46:27.014Z,25.7
2014-08-02T09:50:54.757Z,25.7
2014-08-02T09:55:22.498Z,25.8
2014-08-02T09:59:49.133Z,25.8
2014-08-02T10:04:17.001Z,25.8
2014-08-02T10:08:44.760Z,25.8
2014-08-02T10:13:11.877Z,25.8
2014-08-02T10:17:40.260Z,25.8
2014-08-02T10:22:08.630Z,25.8
2014-08-02T10:26:36.387Z,25.8
2014-08-02T10:31:04.130Z,25.8
2014-08-02T10:35:31.873Z,25.8
2014-08-02T10:39:59.616Z,25.8
2014-08-02T10:44:27.499Z,25.8
2014-08-02T10:48:55.243Z,25.8
2014-08-02T10:53:22.502Z,25.8
2014-08-02T10:57:49.634Z,25.8
2014-08-02T11:02:17.376Z,25.8
2014-08-02T11:06:45.761Z,25.8
2014-08-02T11:11:13.504Z,25.8
2014-08-02T11:15:41.888Z,25.8
2014-08-02T11:20:10.256Z,25.8
2014-08-02T11:24:38.013Z,25.8
2014-08-02T11:29:06.384Z,25.8
2014-08-02T11:33:34.766Z,25.8
2014-08-02T11:38:03.134Z,25.8
2014-08-02T11:42:31.518Z,25.8
2014-08-02T11:46:59.900Z,25.9
2014-08-02T11:51:27.643Z,25.8
2014-08-02T11:55:56.027Z,25.9
2014-08-02T12:00:23.771Z,25.9
2014-08-02T12:04:52.155Z,25.8
2014-08-02T12:09:19.896Z,25.9
2014-08-02T12:13:48.266Z,25.8
2014-08-02T12:18:16.648Z,25.8
2014-08-02T12:22:45.017Z,25.8
2014-08-02T12:27:13.400Z,25.8
2014-08-02T12:31:41.142Z,25.9
2014-08-02T12:36:09.527Z,25.9
2014-08-02T12:40:37.285Z,25.9
2014-08-02T12:45:04.419Z,25.9
2014-08-02T12:49:32.926Z,25.9
2014-08-02T12:54:00.671Z,25.9
2014-08-02T12:58:29.038Z,25.9
2014-08-02T13:02:56.157Z,25.9
2014-08-02T13:07:24.681Z,25.9
2014-08-02T13:11:53.064Z,25.9
2014-08-02T13:16:21.432Z,25.9
2014-08-02T13:20:48.551Z,25.9
2014-08-02T13:25:15.824Z,25.9
2014-08-02T13:29:43.568Z,25.9
2014-08-02T13:34:11.935Z,25.9
2014-08-02T13:38:40.318Z,26
2014-08-02T13:43:08.060Z,26
2014-08-02T13:47:36.460Z,25.9
2014-08-02T13:52:04.829Z,26
2014-08-02T13:56:32.587Z,26
2014-08-02T14:01:00.955Z,26
2014-08-02T14:05:29.338Z,25.9
2014-08-02T14:09:57.706Z,26
2014-08-02T14:14:25.466Z,26
2014-08-02T14:18:53.834Z,26
2014-08-02T14:23:22.202Z,26
2014-08-02T14:27:50.601Z,26
2014-08-02T14:32:18.343Z,26
2014-08-02T14:36:46.101Z,26
2014-08-02T14:41:14.468Z,26.1
2014-08-02T14:45:42.854Z,26.1
2014-08-02T14:50:11.222Z,26.1
2014-08-02T14:54:38.964Z,26.1
2014-08-02T14:59:06.722Z,26.1
2014-08-02T15:03:35.091Z,26.1
2014-08-02T15:08:02.224Z,26.1
2014-08-02T15:12:30.593Z,26.1
2014-08-02T15:21:55.080Z,26.1
2014-08-02T15:26:23.464Z,26.1
2014-08-02T15:30:51.958Z,26.1
2014-08-02T15:35:19.201Z,26.1
2014-08-02T15:39:45.106Z,26.1
2014-08-02T15:44:13.656Z,26.1
2014-08-02T15:48:41.409Z,26.2
2014-08-02T15:53:09.153Z,26.2
2014-08-02T15:57:37.678Z,26.2
2014-08-02T16:02:04.795Z,26.2
2014-08-02T16:06:32.554Z,26.3
2014-08-02T16:11:00.296Z,26.3
2014-08-02T16:15:28.681Z,26.3
2014-08-02T16:19:57.050Z,26.4
2014-08-02T16:24:24.807Z,26.4
2014-08-02T16:28:53.176Z,26.4
2014-08-02T16:33:20.934Z,26.4
2014-08-02T16:37:48.677Z,26.4
2014-08-02T16:42:16.419Z,26.4
2014-08-02T16:46:44.804Z,26.3
2014-08-02T16:57:36.543Z,26.3
2014-08-02T17:02:04.286Z,26.3
2014-08-02T17:06:32.669Z,26.3
2014-08-02T17:11:01.052Z,26.2
2014-08-02T17:15:28.794Z,26.3
2014-08-02T17:19:57.179Z,26.2
2014-08-02T17:24:25.547Z,26.2
2014-08-02T17:28:53.930Z,26.3
2014-08-02T17:33:21.049Z,26.3
2014-08-02T17:37:48.167Z,26.3
2014-08-02T17:42:16.551Z,26.2
2014-08-02T17:46:44.309Z,26.3
2014-08-02T19:24:01.245Z,26.6
2014-08-02T20:09:48.208Z,26
2014-08-02T20:14:43.780Z,26
2014-08-02T20:23:21.063Z,26.1
2014-08-02T20:26:29.116Z,26.1
2014-08-02T20:27:37.961Z,26.1
2014-08-02T20:28:45.541Z,26.1
2014-08-02T20:29:51.731Z,26
2014-08-02T20:30:58.686Z,26.1
2014-08-02T20:32:05.626Z,26.1
2014-08-02T20:40:46.236Z,26.1
2014-08-02T20:44:53.526Z,26
2014-08-02T20:49:01.283Z,25.9
2014-08-02T20:53:09.057Z,26
2014-08-02T20:57:15.721Z,26
2014-08-02T21:01:23.620Z,26
2014-08-02T21:05:32.207Z,26
2014-08-02T21:09:38.838Z,26.1
2014-08-02T21:13:46.613Z,26.1
2014-08-02T21:17:54.543Z,26.1
2014-08-02T21:22:01.816Z,26.1
2014-08-02T21:26:08.966Z,26.1
2014-08-02T21:30:15.598Z,26.2
2014-08-02T21:34:22.746Z,26.2
2014-08-02T21:38:29.394Z,26.2
2014-08-02T21:42:37.168Z,26.2
2014-08-02T21:46:44.301Z,26.2
2014-08-02T21:50:52.074Z,26.2
